Time;durP1;ratioP1;P1;durP2;ratioP2;P2;SDS_P1;SDS_P2;PMS_P1;PMS_P2;Temp;Humidity;BMP_temperature;BMP_pressure;BME280_temperature;BME280_humidity;BME280_pressure;Samples;Min_cycle;Max_cycle;Signal;HPM_P1;HPM_P2
2022/08/29 03:58:36;;;;;;;7.10;6.18;;;;;;;22.56;74.78;100444.37;5606088;31;79317;-56
2022/08/29 04:01:39;;;;;;;6.87;6.18;;;;;;;22.56;74.76;100441.75;5583764;32;34138;-56
2022/08/29 04:08:08;;;;;;;8.10;7.07;;;;;;;22.16;75.39;100450.28;5583948;32;34223;-57
2022/08/29 04:11:13;;;;;;;10.35;6.50;;;;;;;22.03;75.75;100449.56;5583870;31;33638;-57
2022/08/29 04:14:15;;;;;;;6.95;6.25;;;;;;;22.02;75.75;100448.78;5583683;31;33718;-57
2022/08/29 04:17:17;;;;;;;6.62;5.80;;;;;;;22.03;75.82;100455.03;5583688;31;34217;-58
2022/08/29 04:20:22;;;;;;;10.80;7.07;;;;;;;22.09;75.29;100450.09;5583682;31;34333;-57
2022/08/29 04:23:27;;;;;;;7.72;6.47;;;;;;;22.10;75.32;100454.41;5583618;31;34263;-57
2022/08/29 04:26:29;;;;;;;8.25;7.07;;;;;;;22.06;75.49;100462.50;5583804;31;33660;-57
2022/08/29 04:29:39;;;;;;;7.55;6.50;;;;;;;22.12;75.65;100469.28;5583759;31;33601;-57
2022/08/29 04:32:41;;;;;;;7.90;7.03;;;;;;;22.29;74.43;100462.66;5583519;31;33679;-57
2022/08/29 04:35:43;;;;;;;7.65;6.72;;;;;;;22.28;74.58;100464.59;5583563;32;34312;-57
2022/08/29 04:38:45;;;;;;;8.68;6.55;;;;;;;22.33;74.24;100468.19;5583549;32;34188;-57
2022/08/29 04:41:48;;;;;;;8.15;7.18;;;;;;;22.22;74.96;100467.97;5583407;31;33709;-57
2022/08/29 04:44:50;;;;;;;7.87;6.25;;;;;;;22.25;74.75;100472.69;5583577;31;33721;-57
2022/08/29 04:47:52;;;;;;;9.15;6.93;;;;;;;22.18;75.22;100472.53;5567695;32;34275;-57
2022/08/29 04:50:56;;;;;;;8.15;7.20;;;;;;;22.19;75.17;100472.19;5563747;32;34224;-57
2022/08/29 04:53:58;;;;;;;11.10;7.05;;;;;;;22.20;75.34;100478.44;5563988;32;33788;-56
2022/08/29 04:57:04;;;;;;;7.95;7.15;;;;;;;22.38;74.90;100476.09;5563587;32;33653;-57
2022/08/29 05:00:14;;;;;;;9.05;6.90;;;;;;;22.37;74.62;100477.25;5563706;32;33609;-56
2022/08/29 05:03:17;;;;;;;20.65;7.10;;;;;;;22.35;74.62;100480.34;5563509;32;34194;-57
2022/08/29 05:06:21;;;;;;;14.23;7.53;;;;;;;22.38;74.67;100473.38;5577769;32;33699;-56
2022/08/29 05:09:23;;;;;;;11.07;6.85;;;;;;;22.36;74.94;100476.47;5569743;31;34615;-57
2022/08/29 05:12:30;;;;;;;17.73;7.43;;;;;;;22.45;74.24;100476.25;5569315;32;33798;-57
2022/08/29 05:15:32;;;;;;;7.37;6.57;;;;;;;22.48;74.41;100481.81;5561415;32;34339;-56
2022/08/29 05:18:35;;;;;;;8.23;6.32;;;;;;;22.56;73.99;100481.94;5568316;32;34334;-57
2022/08/29 05:21:38;;;;;;;8.50;7.18;;;;;;;22.63;73.17;100482.88;5568370;32;33889;-57
2022/08/29 05:24:41;;;;;;;8.57;7.68;;;;;;;22.77;72.56;100479.62;5569818;32;33618;-57
2022/08/29 05:27:43;;;;;;;11.45;7.15;;;;;;;22.75;72.01;100482.75;5569405;32;33623;-57
2022/08/29 05:30:46;;;;;;;9.30;7.12;;;;;;;22.75;72.06;100488.22;5569862;32;33730;-57
2022/08/29 05:33:49;;;;;;;33.63;8.95;;;;;;;22.95;71.43;100489.03;5568829;32;33792;-57
2022/08/29 05:36:51;;;;;;;9.07;7.43;;;;;;;23.21;70.77;100495.72;5568549;32;33657;-57
2022/08/29 05:39:54;;;;;;;10.50;7.53;;;;;;;23.30;70.00;100492.78;5570234;32;34213;-57
2022/08/29 05:42:56;;;;;;;9.27;6.95;;;;;;;23.10;70.33;100497.50;5569960;32;33691;-57
2022/08/29 05:46:04;;;;;;;12.30;6.57;;;;;;;23.18;70.54;100499.22;5568390;32;33703;-57
2022/08/29 05:49:07;;;;;;;8.25;7.25;;;;;;;23.28;70.54;100490.41;5552369;32;33704;-57
2022/08/29 05:52:10;;;;;;;9.82;6.47;;;;;;;23.17;70.58;100498.41;5569839;32;33588;-57
2022/08/29 05:55:13;;;;;;;9.23;7.37;;;;;;;23.23;70.82;100506.31;5569482;32;34355;-57
2022/08/29 05:58:15;;;;;;;8.38;6.95;;;;;;;23.44;69.93;100496.56;5569635;32;34238;-56
2022/08/29 06:01:23;;;;;;;8.65;6.72;;;;;;;23.48;70.31;100501.28;5569720;32;34385;-57
2022/08/29 06:04:27;;;;;;;28.42;8.05;;;;;;;23.37;70.35;100496.41;5569672;32;32207;-57
2022/08/29 06:07:31;;;;;;;10.80;6.00;;;;;;;23.53;69.84;100495.53;5569682;32;34199;-57
2022/08/29 06:10:39;;;;;;;13.03;6.40;;;;;;;23.78;68.22;100494.03;5569235;32;33850;-57
2022/08/29 06:13:41;;;;;;;10.18;6.57;;;;;;;23.86;68.01;100492.97;5568671;32;34269;-57
2022/08/29 06:16:44;;;;;;;7.30;6.28;;;;;;;23.79;68.18;100498.34;5569330;32;34386;-57
2022/08/29 06:19:49;;;;;;;8.07;5.45;;;;;;;23.70;67.99;100495.06;5568753;32;33764;-56
2022/08/29 06:22:51;;;;;;;;;;;;;;;23.69;68.47;100504.44;5569414;32;33667;-56
2022/08/29 06:25:58;;;;;;;35.80;6.80;;;;;;;23.67;68.51;100501.22;5569597;32;34088;-57
2022/08/29 06:29:06;;;;;;;9.43;5.57;;;;;;;23.72;68.86;100514.66;5569282;32;33728;-57
2022/08/29 06:32:09;;;;;;;6.68;5.07;;;;;;;23.94;67.40;100521.25;5568604;32;34289;-57
2022/08/29 06:35:12;;;;;;;9.90;5.60;;;;;;;23.90;68.31;100521.19;5568346;32;33617;-57
2022/08/29 06:38:14;;;;;;;8.48;5.62;;;;;;;23.98;68.08;100527.56;5569452;32;33754;-56
2022/08/29 06:41:19;;;;;;;7.90;5.37;;;;;;;23.96;68.00;100529.09;5568116;32;34305;-57
2022/08/29 06:44:22;;;;;;;8.20;5.32;;;;;;;24.00;67.97;100524.47;5569574;32;33694;-57
2022/08/29 06:47:25;;;;;;;11.00;6.22;;;;;;;24.01;67.60;100520.59;5569101;31;33797;-56
2022/08/29 06:50:27;;;;;;;9.40;5.60;;;;;;;24.03;67.87;100530.00;5569384;32;33598;-57
2022/08/29 06:53:29;;;;;;;6.37;5.20;;;;;;;24.20;70.19;100528.69;5569408;32;34250;-56
2022/08/29 06:56:35;;;;;;;5.85;5.10;;;;;;;24.37;67.21;100541.87;5567801;32;33666;-57
2022/08/29 06:59:38;;;;;;;6.13;5.50;;;;;;;24.33;66.64;100538.25;5568739;32;34692;-57
2022/08/29 07:02:40;;;;;;;7.37;5.00;;;;;;;24.46;66.78;100541.59;5569369;32;34187;-57
2022/08/29 07:05:50;;;;;;;7.93;5.55;;;;;;;24.43;66.47;100538.81;5569256;32;34444;-57
2022/08/29 07:08:52;;;;;;;5.68;5.07;;;;;;;24.33;67.20;100545.69;5568330;32;33454;-57
2022/08/29 07:11:57;;;;;;;5.30;4.78;;;;;;;24.31;67.15;100546.06;5569023;32;33696;-56
2022/08/29 07:15:00;;;;;;;6.70;5.03;;;;;;;24.35;67.30;100538.69;5562967;32;34315;-57
2022/08/29 07:18:03;;;;;;;9.23;4.97;;;;;;;24.42;67.39;100548.22;5551503;32;34332;-57
2022/08/29 07:21:07;;;;;;;8.52;5.28;;;;;;;24.52;66.52;100542.88;5550966;32;33772;-57
2022/08/29 07:24:10;;;;;;;7.87;4.68;;;;;;;24.66;67.75;100546.97;5564830;32;33704;-56
2022/08/29 07:27:13;;;;;;;7.85;5.12;;;;;;;24.78;66.00;100542.03;5563579;32;33674;-57
2022/08/29 07:30:16;;;;;;;7.60;5.07;;;;;;;24.76;65.33;100543.56;5559302;32;34391;-57
2022/08/29 07:33:18;;;;;;;10.00;6.00;;;;;;;24.69;65.35;100544.25;5566594;32;33723;-57
2022/08/29 07:36:21;;;;;;;8.57;5.50;;;;;;;24.72;65.59;100538.03;5566146;32;34270;-57
2022/08/29 07:39:23;;;;;;;7.37;5.57;;;;;;;24.77;64.88;100545.16;5564413;32;34317;-58
2022/08/29 07:42:26;;;;;;;11.23;5.75;;;;;;;24.83;64.75;100544.47;5566782;32;33628;-57
2022/08/29 07:45:28;;;;;;;6.32;5.62;;;;;;;24.94;64.30;100549.28;5568192;31;33599;-58
2022/08/29 07:48:31;;;;;;;8.05;5.62;;;;;;;25.00;63.47;100547.75;5567742;32;33633;-58
2022/08/29 07:51:34;;;;;;;6.18;5.28;;;;;;;24.97;63.52;100554.03;5555649;32;34339;-58
2022/08/29 07:54:37;;;;;;;12.10;5.78;;;;;;;25.03;63.22;100549.75;5563547;32;32230;-57
2022/08/29 07:57:39;;;;;;;5.85;5.00;;;;;;;25.04;64.21;100554.09;5566953;32;33729;-58
2022/08/29 08:00:41;;;;;;;8.38;5.32;;;;;;;25.09;64.19;100557.28;5551274;32;34105;-58
2022/08/29 08:03:45;;;;;;;6.57;4.87;;;;;;;25.15;63.59;100562.47;5548819;32;33585;-57
2022/08/29 08:06:48;;;;;;;7.95;5.80;;;;;;;25.23;62.65;100564.94;5559356;32;34399;-57
2022/08/29 08:09:51;;;;;;;6.97;5.00;;;;;;;25.24;62.21;100560.25;5568246;32;34330;-57
2022/08/29 08:12:53;;;;;;;8.45;6.03;;;;;;;25.23;61.63;100564.94;5565761;32;33634;-58
2022/08/29 08:15:57;;;;;;;8.15;5.60;;;;;;;25.19;61.42;100569.56;5565300;32;33581;-57
2022/08/29 08:19:00;;;;;;;7.28;5.55;;;;;;;25.15;62.33;100563.25;5566359;32;33410;-58
2022/08/29 08:22:02;;;;;;;8.35;5.65;;;;;;;25.19;62.65;100560.56;5565173;32;33666;-58
2022/08/29 08:25:05;;;;;;;5.55;4.87;;;;;;;25.28;62.90;100558.31;5567179;32;34248;-58
2022/08/29 08:28:07;;;;;;;8.43;4.95;;;;;;;25.29;63.34;100557.12;5558650;32;33662;-57
2022/08/29 08:31:12;;;;;;;7.32;4.65;;;;;;;25.37;63.71;100556.06;5548223;32;34285;-57
2022/08/29 08:34:17;;;;;;;7.85;4.90;;;;;;;25.46;63.51;100550.25;5562529;32;33610;-58
2022/08/29 08:37:20;;;;;;;7.45;4.68;;;;;;;25.50;63.77;100554.63;5567282;32;34270;-57
2022/08/29 08:40:30;;;;;;;11.77;4.50;;;;;;;25.57;63.39;100553.91;5566728;32;34422;-58
2022/08/29 08:43:48;;;;;;;7.90;4.35;;;;;;;25.67;62.88;100552.44;5568237;32;33639;-58
2022/08/29 08:46:58;;;;;;;6.12;4.70;;;;;;;25.73;61.74;100554.44;5568293;31;33677;-58
2022/08/29 08:50:11;;;;;;;6.93;5.05;;;;;;;25.72;62.06;100552.06;5559372;32;33922;-58
2022/08/29 08:53:31;;;;;;;6.45;5.18;;;;;;;25.75;60.33;100557.59;5568223;32;33760;-58
2022/08/29 08:56:39;;;;;;;8.13;5.07;;;;;;;25.67;59.89;100550.47;5568508;32;34210;-58
2022/08/29 08:59:44;;;;;;;9.88;5.18;;;;;;;25.72;60.17;100549.31;5559713;32;33807;-57
2022/08/29 09:02:48;;;;;;;8.77;5.20;;;;;;;25.76;59.68;100550.94;5569964;32;33765;-58
2022/08/29 09:06:25;;;;;;;7.65;4.68;;;;;;;25.78;59.34;100547.81;5569575;32;33186;-57
2022/08/29 09:09:55;;;;;;;7.12;5.05;;;;;;;25.82;59.37;100543.16;5569639;32;34227;-58
2022/08/29 09:13:21;;;;;;;7.80;5.20;;;;;;;25.92;59.30;100552.66;5568742;32;33352;-58
2022/08/29 09:16:29;;;;;;;7.00;5.22;;;;;;;25.93;59.37;100546.00;5565060;32;34311;-57
2022/08/29 09:19:32;;;;;;;5.85;5.20;;;;;;;25.92;59.48;100547.94;5569412;32;34424;-57
2022/08/29 09:22:35;;;;;;;6.50;4.78;;;;;;;25.91;61.04;100546.38;5569951;32;33766;-58
2022/08/29 09:25:37;;;;;;;7.28;4.85;;;;;;;25.91;61.05;100540.09;5568860;32;33979;-58
2022/08/29 09:28:40;;;;;;;8.20;5.18;;;;;;;25.88;61.28;100540.84;5567014;32;33590;-58
2022/08/29 09:31:42;;;;;;;12.37;5.65;;;;;;;25.95;60.66;100538.94;5568807;32;33794;-57
2022/08/29 09:34:47;;;;;;;8.18;5.68;;;;;;;26.09;59.87;100551.22;5569830;32;33356;-57
2022/08/29 09:38:17;;;;;;;11.77;5.97;;;;;;;25.95;59.43;100551.91;5569432;32;33759;-58
2022/08/29 09:41:27;;;;;;;10.68;5.68;;;;;;;25.92;59.16;100547.16;5569700;32;33585;-58
2022/08/29 09:44:34;;;;;;;9.38;6.30;;;;;;;25.93;57.73;100546.00;5569322;32;34301;-57
2022/08/29 09:47:36;;;;;;;9.95;5.78;;;;;;;25.91;58.28;100546.38;5569133;31;33787;-57
2022/08/29 09:50:39;;;;;;;7.30;5.97;;;;;;;25.91;58.02;100549.13;5569829;32;33636;-57
2022/08/29 09:53:42;;;;;;;8.48;5.50;;;;;;;25.92;57.36;100547.16;5567991;32;33673;-58
2022/08/29 09:56:51;;;;;;;7.37;5.53;;;;;;;26.13;56.33;100547.34;5565625;32;33601;-57
2022/08/29 10:00:16;;;;;;;7.40;5.40;;;;;;;26.18;55.80;100549.72;5565672;32;33596;-58
2022/08/29 10:03:21;;;;;;;8.90;4.90;;;;;;;26.16;55.67;100551.28;5559902;32;34467;-57
2022/08/29 10:06:33;;;;;;;9.27;5.50;;;;;;;26.18;55.47;100549.72;5561785;32;34774;-58
2022/08/29 10:09:38;;;;;;;7.60;5.00;;;;;;;26.15;54.98;100550.47;5566851;32;33785;-58
2022/08/29 10:12:50;;;;;;;8.40;5.00;;;;;;;26.30;53.93;100554.12;5568940;32;34354;-58
2022/08/29 10:16:14;;;;;;;6.62;5.25;;;;;;;26.26;54.76;100564.31;5568922;32;33356;-57
2022/08/29 10:19:24;;;;;;;6.82;5.65;;;;;;;26.27;54.91;100556.84;5568876;32;33705;-58
2022/08/29 10:22:49;;;;;;;6.93;5.22;;;;;;;26.34;54.77;100554.94;5567666;32;33765;-58
2022/08/29 10:25:52;;;;;;;6.18;4.90;;;;;;;26.38;54.65;100558.47;5567219;32;33341;-58
2022/08/29 10:29:09;;;;;;;5.57;4.95;;;;;;;26.33;54.48;100561.59;5568620;32;33718;-58
2022/08/29 10:32:23;;;;;;;7.45;5.53;;;;;;;26.48;54.35;100557.00;5567445;32;33624;-58
2022/08/29 10:35:48;;;;;;;6.12;5.40;;;;;;;26.47;53.61;100564.47;5566547;32;33785;-57
2022/08/29 10:39:38;;;;;;;5.95;4.82;;;;;;;26.39;54.01;100553.75;5563055;32;33692;-58
2022/08/29 10:42:42;;;;;;;8.80;4.87;;;;;;;26.44;53.64;100556.16;5509467;31;33722;-58
2022/08/29 10:45:53;;;;;;;6.65;5.18;;;;;;;26.39;55.03;100548.25;5557567;32;33843;-57
2022/08/29 10:49:10;;;;;;;8.30;5.47;;;;;;;26.42;55.65;100553.81;5567937;32;34270;-57
2022/08/29 10:52:38;;;;;;;6.22;4.82;;;;;;;26.48;56.08;100548.75;5568370;32;32382;-57
2022/08/29 10:55:53;;;;;;;5.78;4.82;;;;;;;26.52;55.82;100544.06;5568950;32;33790;-58
2022/08/29 10:59:06;;;;;;;10.82;4.82;;;;;;;26.50;55.59;100540.12;5568505;32;33712;-58
2022/08/29 11:02:22;;;;;;;8.45;4.65;;;;;;;26.45;55.72;100541.25;5568831;32;33731;-57
2022/08/29 11:05:32;;;;;;;9.90;4.60;;;;;;;26.46;55.82;100531.84;5568342;32;33645;-58
2022/08/29 11:08:58;;;;;;;7.97;5.20;;;;;;;26.42;56.48;100542.81;5568652;32;33669;-57
2022/08/29 11:12:02;;;;;;;5.65;4.65;;;;;;;26.38;56.52;100541.19;5569106;32;34332;-58
2022/08/29 11:15:17;;;;;;;5.57;4.97;;;;;;;26.32;57.16;100527.03;5569139;32;34439;-57
2022/08/29 11:18:22;;;;;;;5.68;4.53;;;;;;;26.31;57.39;100535.66;5569276;32;33848;-57
2022/08/29 11:21:28;;;;;;;8.07;4.72;;;;;;;26.32;57.67;100531.75;5569025;32;33760;-57
2022/08/29 11:24:34;;;;;;;8.30;4.93;;;;;;;26.38;57.17;100525.50;5567995;32;33622;-57
2022/08/29 11:27:57;;;;;;;5.78;4.55;;;;;;;26.38;56.45;100524.72;5569040;32;33333;-58
2022/08/29 11:31:11;;;;;;;6.43;4.62;;;;;;;26.33;57.31;100520.38;5568297;32;33790;-58
2022/08/29 11:34:21;;;;;;;5.63;4.77;;;;;;;26.46;55.85;100518.87;5569228;32;33637;-57
2022/08/29 11:37:32;;;;;;;8.63;4.30;;;;;;;26.38;56.98;100519.22;5568941;32;33782;-57
2022/08/29 11:40:58;;;;;;;6.15;4.30;;;;;;;26.47;56.06;100516.91;5568791;32;33687;-58
2022/08/29 11:44:29;;;;;;;5.15;4.53;;;;;;;26.40;56.68;100514.13;5568940;32;34307;-57
2022/08/29 11:47:43;;;;;;;6.18;4.40;;;;;;;26.41;56.43;100513.72;5568786;32;33278;-57
2022/08/29 11:50:46;;;;;;;7.23;3.63;;;;;;;26.47;55.59;100514.16;5568831;32;34346;-57
2022/08/29 11:53:48;;;;;;;5.50;3.83;;;;;;;26.56;55.74;100513.84;5568898;32;34519;-58
2022/08/29 11:57:10;;;;;;;4.65;3.85;;;;;;;26.46;56.13;100521.63;5568424;32;34235;-58
2022/08/29 12:00:35;;;;;;;5.55;3.75;;;;;;;26.42;56.42;100518.09;5560250;32;33742;-57
2022/08/29 12:03:42;;;;;;;8.27;4.43;;;;;;;26.65;54.98;100517.81;5568655;32;33747;-57
2022/08/29 12:06:59;;;;;;;6.43;3.72;;;;;;;26.65;55.49;100517.00;5567313;32;33726;-58
2022/08/29 12:10:25;;;;;;;9.43;4.12;;;;;;;26.65;55.33;100517.00;5568449;32;33260;-57
2022/08/29 12:13:42;;;;;;;5.60;3.62;;;;;;;26.64;55.77;100512.69;5568413;32;34482;-58
2022/08/29 12:16:48;;;;;;;6.47;3.42;;;;;;;26.79;54.43;100508.03;5568348;32;33683;-57
2022/08/29 12:20:09;;;;;;;6.22;3.83;;;;;;;26.73;55.14;100507.63;5570006;32;33822;-57
2022/08/29 12:23:11;;;;;;;7.30;3.50;;;;;;;26.72;55.14;100503.28;5570747;32;33858;-57
2022/08/29 12:26:37;;;;;;;6.47;3.90;;;;;;;26.79;54.43;100497.03;5570928;32;33637;-58
2022/08/29 12:29:41;;;;;;;8.70;3.85;;;;;;;26.86;54.38;100497.87;5570852;32;33228;-58
2022/08/29 12:33:11;;;;;;;7.43;3.90;;;;;;;26.92;54.54;100492.75;5570521;32;34387;-57
2022/08/29 12:36:50;;;;;;;3.62;3.10;;;;;;;26.96;54.56;100485.31;5570862;32;33653;-57
2022/08/29 12:40:05;;;;;;;6.82;3.67;;;;;;;27.05;53.06;100477.47;5570624;32;34236;-58
2022/08/29 12:43:29;;;;;;;10.75;3.25;;;;;;;27.07;53.37;100480.63;5570584;32;33759;-58
2022/08/29 12:46:44;;;;;;;5.82;3.20;;;;;;;27.10;53.52;100479.84;5570701;32;34367;-58
2022/08/29 12:49:54;;;;;;;5.97;3.15;;;;;;;27.06;53.77;100472.75;5570535;32;33716;-58
2022/08/29 12:53:16;;;;;;;11.45;2.95;;;;;;;27.27;52.95;100477.53;5570535;32;33620;-57
2022/08/29 12:56:21;;;;;;;7.12;2.78;;;;;;;27.13;53.32;100468.09;5570418;32;33725;-58
2022/08/29 12:59:24;;;;;;;5.83;3.20;;;;;;;27.20;51.83;100470.06;5570350;32;33710;-58
2022/08/29 13:02:34;;;;;;;8.50;3.37;;;;;;;27.17;52.50;100459.81;5570440;32;33566;-57
2022/08/29 13:05:39;;;;;;;4.47;2.90;;;;;;;27.25;51.76;100457.87;5570261;32;34283;-57
2022/08/29 13:08:42;;;;;;;6.60;2.83;;;;;;;27.24;51.89;100454.34;5570272;32;33796;-58
2022/08/29 13:11:44;;;;;;;4.93;2.90;;;;;;;27.39;51.06;100455.13;5570558;32;33679;-58
2022/08/29 13:14:54;;;;;;;4.97;2.87;;;;;;;27.41;51.28;100452.75;5570311;32;33661;-58
2022/08/29 13:17:56;;;;;;;7.43;2.85;;;;;;;27.44;51.50;100451.19;5570381;32;33811;-57
2022/08/29 13:21:30;;;;;;;6.65;2.90;;;;;;;27.41;50.74;100455.50;5569973;32;34335;-58
2022/08/29 13:24:32;;;;;;;5.22;2.72;;;;;;;27.46;50.01;100452.38;5570397;32;34300;-58
2022/08/29 13:27:35;;;;;;;7.25;2.78;;;;;;;27.37;50.58;100457.50;5570125;32;33609;-57
2022/08/29 13:30:37;;;;;;;4.53;2.92;;;;;;;27.22;51.22;100445.69;5569863;32;33894;-57
2022/08/29 13:33:45;;;;;;;8.32;3.00;;;;;;;27.17;51.93;100446.84;5569173;32;34444;-58
2022/08/29 13:36:57;;;;;;;3.42;2.78;;;;;;;27.17;51.70;100446.06;5570167;32;34357;-58
2022/08/29 13:40:40;;;;;;;4.87;2.45;;;;;;;27.22;52.06;100444.88;5569995;32;33744;-57
2022/08/29 13:43:47;;;;;;;4.37;3.03;;;;;;;27.19;51.27;100440.97;5570200;32;33694;-58
2022/08/29 13:46:52;;;;;;;5.72;3.20;;;;;;;27.24;51.47;100437.81;5570123;32;34338;-58
2022/08/29 13:50:08;;;;;;;6.87;2.70;;;;;;;27.26;51.00;100442.94;5570107;32;34226;-58
2022/08/29 13:53:10;;;;;;;4.35;2.90;;;;;;;27.18;50.28;100442.12;5570005;32;34500;-58
2022/08/29 13:56:22;;;;;;;4.47;2.65;;;;;;;27.19;50.64;100445.69;5568834;32;34311;-57
2022/08/29 13:59:29;;;;;;;5.80;2.90;;;;;;;27.10;51.31;100446.03;5569948;32;33562;-58
